Time;durP1;ratioP1;P1;durP2;ratioP2;P2;SDS_P1;SDS_P2;PMS_P1;PMS_P2;Temp;Humidity;BMP_temperature;BMP_pressure;BME280_temperature;BME280_humidity;BME280_pressure;Samples;Min_cycle;Max_cycle;Signal;HPM_P1;HPM_P2
2022/03/16 00:00:14;;;;;;;0.40;0.30;;;8.30;99.90;;;;;;5030779;28;20390;-73
2022/03/16 00:02:40;;;;;;;0.40;0.30;;;8.10;99.90;;;;;;5029823;28;20391;-74
2022/03/16 00:05:06;;;;;;;0.40;0.20;;;8.20;99.90;;;;;;5030873;28;20414;-74
2022/03/16 00:07:32;;;;;;;0.70;0.50;;;8.10;99.90;;;;;;5028824;28;20532;-73
2022/03/16 00:09:57;;;;;;;0.40;0.20;;;8.20;99.90;;;;;;5031106;28;20490;-74
2022/03/16 00:12:23;;;;;;;0.40;0.30;;;8.20;99.90;;;;;;5030043;28;20383;-73
2022/03/16 00:14:49;;;;;;;0.40;0.20;;;8.20;99.90;;;;;;5030900;28;20844;-74
2022/03/16 00:17:16;;;;;;;0.40;0.20;;;8.40;99.90;;;;;;5031064;28;20863;-73
2022/03/16 00:19:43;;;;;;;0.40;0.20;;;8.30;99.90;;;;;;5029987;28;20381;-73
2022/03/16 00:22:10;;;;;;;0.40;0.30;;;8.30;99.90;;;;;;5014239;28;20408;-74
2022/03/16 00:24:36;;;;;;;0.40;0.22;;;8.00;99.90;;;;;;5010345;28;20412;-74
2022/03/16 00:27:02;;;;;;;0.40;0.30;;;8.10;99.90;;;;;;5011177;28;20381;-73
2022/03/16 00:29:28;;;;;;;0.40;0.20;;;8.00;99.90;;;;;;5010042;28;20380;-74
2022/03/16 00:31:54;;;;;;;0.53;0.53;;;8.00;99.90;;;;;;5010436;28;20400;-73
2022/03/16 00:34:19;;;;;;;0.40;0.30;;;8.00;99.90;;;;;;5009598;28;20885;-74
2022/03/16 00:36:45;;;;;;;0.40;0.20;;;8.00;99.90;;;;;;5010221;28;20388;-73
2022/03/16 00:39:11;;;;;;;0.40;0.20;;;8.10;99.90;;;;;;5010712;28;20466;-73
2022/03/16 00:41:37;;;;;;;0.40;0.20;;;8.00;99.90;;;;;;5009911;28;20405;-74
2022/03/16 00:44:04;;;;;;;0.90;0.80;;;7.90;99.90;;;;;;5010478;28;20409;-73
2022/03/16 00:46:31;;;;;;;0.40;0.30;;;7.90;99.90;;;;;;5010679;28;20380;-74
2022/03/16 00:48:56;;;;;;;0.40;0.40;;;7.90;99.90;;;;;;5010120;28;20514;-73
2022/03/16 00:51:23;;;;;;;1.50;1.00;;;7.90;99.90;;;;;;5010692;28;20475;-74
2022/03/16 00:53:48;;;;;;;0.40;0.20;;;7.80;99.90;;;;;;5009639;28;20954;-74
2022/03/16 00:56:14;;;;;;;0.40;0.30;;;7.90;99.90;;;;;;5010495;28;20436;-73
2022/03/16 00:58:40;;;;;;;0.40;0.20;;;7.90;99.90;;;;;;5010766;28;20388;-74
2022/03/16 01:01:06;;;;;;;5.60;0.80;;;7.80;99.90;;;;;;5009891;28;20880;-73
2022/03/16 01:03:33;;;;;;;0.40;0.20;;;7.80;99.90;;;;;;5010456;28;20460;-74
2022/03/16 01:05:59;;;;;;;0.40;0.20;;;7.80;99.90;;;;;;5009760;28;20888;-73
2022/03/16 01:08:24;;;;;;;2.40;1.10;;;7.70;99.90;;;;;;5010496;28;20419;-73
2022/03/16 01:10:50;;;;;;;0.40;0.20;;;7.60;99.90;;;;;;5010327;28;20389;-73
2022/03/16 01:13:16;;;;;;;0.40;0.20;;;7.60;99.90;;;;;;5009979;28;20377;-73
2022/03/16 01:15:42;;;;;;;0.40;0.20;;;7.60;99.90;;;;;;5010769;28;20917;-73
2022/03/16 01:18:07;;;;;;;0.40;0.30;;;7.60;99.90;;;;;;5010357;28;20381;-74
2022/03/16 01:20:33;;;;;;;0.40;0.20;;;7.70;99.90;;;;;;5009442;28;20943;-74
2022/03/16 01:22:59;;;;;;;0.40;0.30;;;7.70;99.90;;;;;;5010628;28;20381;-74
2022/03/16 01:25:25;;;;;;;0.40;0.30;;;7.60;99.90;;;;;;5009688;28;20454;-73
2022/03/16 01:27:51;;;;;;;0.40;0.20;;;7.60;99.90;;;;;;5009177;28;20393;-74
2022/03/16 01:30:16;;;;;;;0.40;0.20;;;7.70;99.90;;;;;;5009334;28;20393;-73
2022/03/16 01:32:42;;;;;;;0.40;0.30;;;7.60;99.90;;;;;;5010481;28;20396;-73
2022/03/16 01:35:09;;;;;;;0.40;0.30;;;7.60;99.90;;;;;;5009119;28;20393;-73
2022/03/16 01:37:36;;;;;;;0.40;0.20;;;7.60;99.90;;;;;;5009836;28;20396;-73
2022/03/16 01:40:04;;;;;;;0.60;0.60;;;7.60;99.90;;;;;;5012374;28;20392;-74
2022/03/16 01:42:30;;;;;;;0.40;0.20;;;7.60;99.90;;;;;;5013322;28;20381;-73
2022/03/16 01:44:57;;;;;;;0.40;0.30;;;7.50;99.90;;;;;;5014092;28;20422;-73
2022/03/16 01:47:24;;;;;;;0.60;0.50;;;7.40;99.90;;;;;;5012875;28;20389;-74
2022/03/16 01:49:51;;;;;;;0.40;0.30;;;7.30;99.90;;;;;;5013953;28;20384;-74
2022/03/16 01:52:22;;;;;;;1.50;0.80;;;7.20;99.90;;;;;;5014026;28;20399;-74
2022/03/16 01:54:49;;;;;;;0.40;0.20;;;7.20;99.90;;;;;;5013569;28;20384;-74
2022/03/16 01:57:15;;;;;;;0.40;0.30;;;7.20;99.90;;;;;;5013639;28;20388;-74
2022/03/16 01:59:42;;;;;;;0.40;0.20;;;7.20;99.90;;;;;;5013247;28;20381;-73
2022/03/16 02:02:08;;;;;;;0.40;0.20;;;7.20;99.90;;;;;;5014367;28;20412;-73
2022/03/16 02:04:34;;;;;;;0.40;0.20;;;7.20;99.90;;;;;;5013277;28;20417;-73
2022/03/16 02:07:00;;;;;;;0.40;0.20;;;7.30;99.90;;;;;;5013467;28;20389;-74
2022/03/16 02:09:26;;;;;;;0.40;0.30;;;7.30;99.90;;;;;;5013797;28;20881;-73
2022/03/16 02:11:52;;;;;;;0.40;0.30;;;7.20;99.90;;;;;;5012844;28;20392;-73
2022/03/16 02:14:20;;;;;;;0.40;0.20;;;7.20;99.90;;;;;;5013491;28;20385;-73
2022/03/16 02:16:47;;;;;;;0.40;0.20;;;7.10;99.90;;;;;;5012478;28;20381;-73
2022/03/16 02:19:12;;;;;;;0.40;0.20;;;7.00;99.90;;;;;;5012862;28;20396;-74
2022/03/16 02:21:40;;;;;;;1.30;1.20;;;7.10;99.90;;;;;;5013222;28;20392;-74
2022/03/16 02:24:07;;;;;;;0.40;0.30;;;7.00;99.90;;;;;;5013015;28;20424;-74
2022/03/16 02:26:33;;;;;;;0.40;0.20;;;7.10;99.90;;;;;;5013052;28;20874;-73
2022/03/16 02:28:59;;;;;;;0.40;0.20;;;7.10;99.90;;;;;;5012587;28;20806;-73
2022/03/16 02:31:26;;;;;;;0.70;0.70;;;7.20;99.90;;;;;;5013215;28;20475;-73
2022/03/16 02:33:52;;;;;;;0.40;0.20;;;7.10;99.90;;;;;;5012579;28;20381;-73
2022/03/16 02:36:18;;;;;;;0.40;0.20;;;7.00;99.90;;;;;;5013022;28;20377;-73
2022/03/16 02:38:44;;;;;;;0.40;0.20;;;7.00;99.90;;;;;;5013377;28;20385;-73
2022/03/16 02:41:10;;;;;;;0.40;0.20;;;7.00;99.90;;;;;;5012008;28;20393;-73
2022/03/16 02:43:37;;;;;;;0.40;0.30;;;6.90;99.90;;;;;;5013229;28;20472;-73
2022/03/16 02:46:03;;;;;;;0.40;0.20;;;6.90;99.90;;;;;;5012268;28;20475;-73
2022/03/16 02:48:29;;;;;;;0.40;0.20;;;6.80;99.90;;;;;;5012916;28;20459;-74
2022/03/16 02:50:54;;;;;;;0.60;0.50;;;6.90;99.90;;;;;;5011935;28;20793;-73
2022/03/16 02:53:20;;;;;;;0.40;0.20;;;6.90;99.90;;;;;;5011871;28;20464;-73
2022/03/16 02:55:47;;;;;;;0.40;0.20;;;6.80;99.90;;;;;;5012906;28;20836;-73
2022/03/16 02:58:14;;;;;;;0.80;0.80;;;6.80;99.90;;;;;;5012247;28;20849;-74
2022/03/16 03:00:40;;;;;;;0.40;0.20;;;6.80;99.90;;;;;;5012923;28;20840;-74
2022/03/16 03:03:06;;;;;;;0.40;0.30;;;6.80;99.90;;;;;;5013038;28;20395;-74
2022/03/16 03:05:32;;;;;;;0.40;0.20;;;6.70;99.90;;;;;;5010604;28;20505;-74
2022/03/16 03:07:57;;;;;;;0.60;0.60;;;6.60;99.90;;;;;;5012205;28;20420;-74
2022/03/16 03:10:23;;;;;;;0.40;0.20;;;6.60;99.90;;;;;;5011812;28;20476;-74
2022/03/16 03:12:49;;;;;;;0.40;0.20;;;6.70;99.90;;;;;;5012702;28;20750;-74
2022/03/16 03:15:15;;;;;;;0.40;0.33;;;6.70;99.90;;;;;;5012535;28;20395;-74
2022/03/16 03:17:42;;;;;;;0.65;0.65;;;6.60;99.90;;;;;;5011537;28;20388;-74
2022/03/16 03:20:09;;;;;;;0.40;0.30;;;6.50;99.90;;;;;;5012537;28;20373;-74
2022/03/16 03:22:35;;;;;;;0.60;0.60;;;6.40;99.90;;;;;;5011451;28;20385;-74
2022/03/16 03:25:01;;;;;;;0.40;0.20;;;6.40;99.90;;;;;;5012292;28;20444;-74
2022/03/16 03:27:27;;;;;;;0.40;0.40;;;6.50;99.90;;;;;;5010575;28;20527;-74
2022/03/16 03:29:53;;;;;;;0.40;0.35;;;6.50;99.90;;;;;;5010908;28;20948;-74
2022/03/16 03:32:19;;;;;;;0.60;0.60;;;6.60;99.90;;;;;;5012205;28;20520;-74
2022/03/16 03:34:47;;;;;;;0.40;0.30;;;6.60;99.90;;;;;;5011357;28;20412;-74
2022/03/16 03:37:16;;;;;;;1.00;0.90;;;6.60;99.90;;;;;;5011479;28;20861;-74
2022/03/16 03:39:43;;;;;;;0.40;0.30;;;6.60;99.90;;;;;;5010226;28;20412;-74
2022/03/16 03:42:09;;;;;;;0.40;0.30;;;6.60;99.90;;;;;;5011133;28;20749;-74
2022/03/16 03:44:37;;;;;;;0.40;0.20;;;6.50;99.90;;;;;;5011875;28;20488;-74
2022/03/16 03:47:07;;;;;;;0.57;0.57;;;6.50;99.90;;;;;;5010240;28;20385;-74
2022/03/16 03:49:38;;;;;;;0.40;0.20;;;6.50;99.90;;;;;;5011982;28;20389;-74
2022/03/16 03:52:04;;;;;;;0.47;0.40;;;6.60;99.90;;;;;;5010670;28;20435;-74
2022/03/16 03:54:30;;;;;;;0.40;0.20;;;6.50;99.90;;;;;;5011150;28;20464;-74
2022/03/16 03:56:56;;;;;;;0.40;0.30;;;6.60;99.90;;;;;;5010631;28;20431;-74
2022/03/16 03:59:25;;;;;;;0.40;0.20;;;6.60;99.90;;;;;;5010250;28;20385;-74
2022/03/16 04:01:51;;;;;;;0.40;0.20;;;6.60;99.90;;;;;;5010933;28;20412;-73
2022/03/16 04:04:17;;;;;;;0.40;0.20;;;6.50;99.90;;;;;;5011413;28;20417;-74
2022/03/16 04:06:43;;;;;;;0.40;0.20;;;6.60;99.90;;;;;;5011447;28;20384;-74
2022/03/16 04:09:09;;;;;;;0.40;0.20;;;6.60;99.90;;;;;;5010077;28;20889;-74
2022/03/16 04:11:35;;;;;;;0.40;0.20;;;6.60;99.90;;;;;;5011589;28;20384;-75
2022/03/16 04:14:01;;;;;;;0.40;0.20;;;6.70;99.90;;;;;;5010609;28;20376;-74
2022/03/16 04:16:26;;;;;;;0.40;0.40;;;6.60;99.90;;;;;;5011234;28;20396;-74
2022/03/16 04:18:52;;;;;;;1.00;1.00;;;6.60;99.90;;;;;;5011374;28;20381;-75
2022/03/16 04:21:18;;;;;;;0.40;0.20;;;6.50;99.90;;;;;;5009217;28;20409;-74
2022/03/16 04:23:43;;;;;;;0.40;0.20;;;6.50;99.90;;;;;;5010777;28;20393;-74
2022/03/16 04:26:09;;;;;;;0.40;0.20;;;6.60;99.90;;;;;;5010670;28;20491;-74
2022/03/16 04:28:35;;;;;;;0.40;0.40;;;6.50;99.90;;;;;;5011165;28;20385;-72
2022/03/16 04:31:01;;;;;;;0.40;0.30;;;6.50;99.90;;;;;;5011295;28;20834;-73
2022/03/16 04:33:28;;;;;;;0.40;0.20;;;6.50;99.90;;;;;;5010714;28;20381;-73
2022/03/16 04:35:54;;;;;;;0.40;0.20;;;6.50;99.90;;;;;;5011528;28;20404;-73
2022/03/16 04:38:19;;;;;;;0.40;0.30;;;6.50;99.90;;;;;;5009243;28;20392;-73
2022/03/16 04:40:46;;;;;;;0.40;0.20;;;6.40;99.90;;;;;;5011447;28;20425;-72
2022/03/16 04:43:11;;;;;;;0.40;0.20;;;6.30;99.90;;;;;;5009895;28;20455;-72
2022/03/16 04:45:39;;;;;;;0.40;0.30;;;6.30;99.90;;;;;;5010421;28;20420;-73
2022/03/16 04:48:09;;;;;;;0.40;0.20;;;6.10;99.90;;;;;;5010016;28;20474;-73
2022/03/16 04:50:43;;;;;;;0.40;0.20;;;6.10;99.90;;;;;;5010423;28;20857;-73
2022/03/16 04:53:09;;;;;;;0.70;0.70;;;6.10;99.90;;;;;;5011062;28;20480;-73
2022/03/16 04:55:36;;;;;;;0.40;0.40;;;6.20;99.90;;;;;;5010575;28;20500;-73
2022/03/16 04:58:03;;;;;;;0.90;0.70;;;6.20;99.90;;;;;;5011113;28;20385;-73
2022/03/16 05:00:29;;;;;;;0.40;0.20;;;6.10;99.90;;;;;;5010136;28;20949;-73
2022/03/16 05:02:55;;;;;;;0.60;0.60;;;6.10;99.90;;;;;;5009978;28;20509;-73
2022/03/16 05:05:20;;;;;;;0.70;0.60;;;6.10;99.90;;;;;;5010872;28;20816;-73
2022/03/16 05:07:46;;;;;;;0.40;0.20;;;6.10;99.90;;;;;;5009695;28;20405;-73
2022/03/16 05:10:13;;;;;;;0.40;0.20;;;6.20;99.90;;;;;;5011054;28;20403;-73
2022/03/16 05:12:44;;;;;;;0.40;0.20;;;6.20;99.90;;;;;;5010997;28;20796;-73
2022/03/16 05:15:13;;;;;;;0.40;0.20;;;6.40;99.90;;;;;;5012921;28;20389;-73
2022/03/16 05:17:38;;;;;;;0.40;0.20;;;6.40;99.90;;;;;;5014786;28;20843;-72
2022/03/16 05:20:09;;;;;;;0.40;0.20;;;6.40;99.90;;;;;;5011929;28;20480;-73
2022/03/16 05:22:55;;;;;;;0.40;0.20;;;6.30;99.90;;;;;;5014671;28;20484;-73
2022/03/16 05:25:27;;;;;;;0.40;0.40;;;6.30;99.90;;;;;;4995478;28;20417;-73
2022/03/16 05:27:54;;;;;;;0.40;0.30;;;6.20;99.90;;;;;;4994402;28;20898;-73
2022/03/16 05:30:22;;;;;;;4.10;0.70;;;6.20;99.90;;;;;;4996600;28;20409;-73
2022/03/16 05:32:51;;;;;;;0.40;0.20;;;6.10;99.90;;;;;;5010423;28;20792;-73
2022/03/16 05:35:17;;;;;;;0.90;0.90;;;6.30;99.90;;;;;;5003582;28;20398;-73
2022/03/16 05:37:42;;;;;;;0.40;0.20;;;6.10;99.90;;;;;;5008064;28;20408;-73
2022/03/16 05:40:09;;;;;;;0.40;0.40;;;6.00;99.90;;;;;;5007443;28;20401;-72
2022/03/16 05:42:35;;;;;;;1.80;1.50;;;6.00;99.90;;;;;;5007049;28;20388;-72
2022/03/16 05:45:01;;;;;;;0.40;0.30;;;6.00;99.90;;;;;;5010089;28;20542;-73
2022/03/16 05:47:27;;;;;;;0.80;0.80;;;6.00;99.90;;;;;;5002716;28;20470;-72
2022/03/16 05:49:54;;;;;;;0.60;0.60;;;5.90;99.90;;;;;;5010268;28;20699;-73
2022/03/16 05:52:21;;;;;;;0.40;0.20;;;5.80;99.90;;;;;;5005275;28;20389;-73
2022/03/16 05:54:49;;;;;;;0.50;0.50;;;5.80;99.90;;;;;;5011140;28;20689;-73
2022/03/16 05:57:15;;;;;;;0.60;0.60;;;5.80;99.90;;;;;;5012374;28;20723;-73
2022/03/16 05:59:42;;;;;;;0.40;0.40;;;5.90;99.90;;;;;;5014314;28;20380;-73
2022/03/16 06:02:09;;;;;;;0.40;0.20;;;5.80;99.90;;;;;;5014303;28;20381;-73
2022/03/16 06:04:35;;;;;;;0.40;0.20;;;5.80;99.90;;;;;;5013308;28;20465;-73
2022/03/16 06:07:05;;;;;;;0.40;0.20;;;5.80;99.90;;;;;;5012797;28;20487;-74
2022/03/16 06:09:31;;;;;;;0.40;0.20;;;5.80;99.90;;;;;;5012603;28;20436;-73
2022/03/16 06:11:58;;;;;;;0.40;0.20;;;5.80;99.90;;;;;;5014045;28;20506;-74
2022/03/16 06:14:24;;;;;;;0.40;0.30;;;5.90;99.90;;;;;;5013384;28;20407;-74
2022/03/16 06:16:52;;;;;;;0.90;0.80;;;6.10;99.90;;;;;;5012705;28;20491;-75
2022/03/16 06:19:19;;;;;;;0.40;0.20;;;6.20;99.90;;;;;;5013296;28;20399;-75
2022/03/16 06:21:45;;;;;;;0.40;0.20;;;6.20;99.90;;;;;;5010941;28;20394;-75
2022/03/16 06:24:11;;;;;;;0.40;0.30;;;6.30;99.90;;;;;;4996278;28;20426;-75
2022/03/16 06:26:38;;;;;;;0.70;0.70;;;6.30;99.90;;;;;;4992167;28;20784;-74
2022/03/16 06:29:03;;;;;;;0.40;0.30;;;6.30;99.90;;;;;;4994001;28;20414;-73
2022/03/16 06:31:29;;;;;;;1.30;1.20;;;6.30;99.90;;;;;;4994098;28;20391;-73
2022/03/16 06:33:55;;;;;;;0.40;0.20;;;6.20;99.90;;;;;;4992901;28;20386;-73
2022/03/16 06:36:26;;;;;;;0.40;0.30;;;6.30;99.90;;;;;;4992564;28;20426;-73
2022/03/16 06:38:53;;;;;;;0.50;0.50;;;6.30;99.90;;;;;;4992613;28;20413;-73
2022/03/16 06:41:19;;;;;;;0.40;0.27;;;6.30;99.90;;;;;;4993668;28;20754;-73
2022/03/16 06:43:44;;;;;;;0.40;0.20;;;6.30;99.90;;;;;;4993084;28;20383;-73
2022/03/16 06:46:10;;;;;;;0.40;0.30;;;6.30;99.90;;;;;;4993620;28;20809;-74
2022/03/16 06:48:36;;;;;;;1.40;1.10;;;6.30;99.90;;;;;;4993814;28;20466;-74
2022/03/16 06:51:02;;;;;;;0.40;0.20;;;6.40;99.90;;;;;;4992966;28;20391;-75
2022/03/16 06:53:28;;;;;;;1.30;0.90;;;6.50;99.90;;;;;;4992452;28;20754;-74
2022/03/16 06:55:54;;;;;;;0.40;0.20;;;6.40;99.90;;;;;;4992725;28;20383;-73
2022/03/16 06:58:20;;;;;;;0.40;0.20;;;6.60;99.90;;;;;;4993425;28;20375;-73
2022/03/16 07:01:04;;;;;;;0.40;0.30;;;6.70;99.90;;;;;;4993183;28;20449;-74
2022/03/16 07:03:30;;;;;;;0.60;0.60;;;6.70;99.90;;;;;;4990546;28;20470;-74
2022/03/16 07:05:56;;;;;;;0.43;0.30;;;6.70;99.90;;;;;;4992852;28;20430;-74
2022/03/16 07:08:22;;;;;;;0.60;0.60;;;6.80;99.90;;;;;;4992613;28;20822;-73
2022/03/16 07:10:47;;;;;;;0.40;0.27;;;7.00;99.90;;;;;;5008865;28;20741;-73
2022/03/16 07:13:14;;;;;;;0.40;0.30;;;7.10;99.90;;;;;;5011860;28;20460;-73
2022/03/16 07:15:41;;;;;;;0.80;0.80;;;7.00;99.90;;;;;;5012619;28;20385;-73
2022/03/16 07:18:07;;;;;;;0.40;0.20;;;7.10;99.90;;;;;;5012028;28;20396;-73
2022/03/16 07:20:33;;;;;;;1.05;0.95;;;7.10;99.90;;;;;;5012370;28;20385;-74
2022/03/16 07:23:10;;;;;;;1.00;0.83;;;7.30;99.90;;;;;;5012394;28;20377;-74
2022/03/16 07:25:41;;;;;;;1.40;1.30;;;7.10;99.90;;;;;;5012497;28;20470;-75
2022/03/16 07:28:08;;;;;;;0.40;0.40;;;7.10;99.90;;;;;;5012748;28;20718;-74
2022/03/16 07:30:34;;;;;;;0.40;0.32;;;7.00;99.90;;;;;;5012196;28;20868;-74
2022/03/16 07:33:00;;;;;;;0.40;0.20;;;7.30;99.90;;;;;;5012554;28;21001;-75
2022/03/16 07:35:26;;;;;;;0.98;0.95;;;7.10;99.90;;;;;;5011691;28;20384;-73
2022/03/16 07:37:54;;;;;;;0.40;0.20;;;7.30;99.90;;;;;;5012072;28;20769;-73
2022/03/16 07:40:19;;;;;;;0.60;0.60;;;7.30;99.90;;;;;;5011743;28;20381;-74
2022/03/16 07:42:47;;;;;;;0.40;0.30;;;7.40;99.90;;;;;;5012318;28;20377;-74
2022/03/16 07:45:15;;;;;;;0.40;0.20;;;7.20;99.90;;;;;;5012094;28;20420;-74
2022/03/16 07:47:41;;;;;;;1.50;1.40;;;7.40;99.90;;;;;;5011552;28;20468;-74
2022/03/16 07:50:11;;;;;;;0.40;0.28;;;7.20;99.90;;;;;;5011927;28;20454;-74
2022/03/16 07:52:36;;;;;;;0.40;0.30;;;7.50;99.90;;;;;;5011194;28;20388;-74
2022/03/16 07:55:04;;;;;;;0.40;0.30;;;7.60;99.90;;;;;;5011797;28;20397;-74
2022/03/16 07:57:29;;;;;;;0.40;0.20;;;7.60;99.90;;;;;;5009988;28;20389;-74
2022/03/16 07:59:56;;;;;;;1.50;0.90;;;7.60;99.90;;;;;;5011796;28;20455;-74
2022/03/16 08:02:23;;;;;;;0.70;0.70;;;7.20;99.90;;;;;;5011901;28;20868;-74
2022/03/16 08:04:48;;;;;;;1.10;1.00;;;7.40;99.90;;;;;;5011070;28;20424;-74
2022/03/16 08:07:14;;;;;;;0.40;0.30;;;7.60;99.90;;;;;;5010675;28;20389;-75
2022/03/16 08:09:40;;;;;;;0.40;0.20;;;7.50;99.90;;;;;;5001557;28;20411;-73
2022/03/16 08:12:07;;;;;;;2.80;1.50;;;7.70;99.90;;;;;;4991966;28;20378;-73
2022/03/16 08:14:32;;;;;;;1.20;1.20;;;7.90;99.90;;;;;;4992237;28;20386;-73
2022/03/16 08:16:58;;;;;;;0.73;0.73;;;7.80;99.90;;;;;;4991344;28;21024;-74
2022/03/16 08:19:24;;;;;;;1.00;0.90;;;8.10;99.90;;;;;;4992197;28;20393;-74
2022/03/16 08:21:50;;;;;;;0.40;0.20;;;7.90;99.90;;;;;;4990854;28;20728;-74
2022/03/16 08:24:16;;;;;;;0.40;0.30;;;7.90;99.90;;;;;;4991966;28;20394;-73
2022/03/16 08:26:42;;;;;;;0.40;0.20;;;8.10;99.90;;;;;;4992065;28;20387;-74
2022/03/16 08:29:08;;;;;;;0.60;0.60;;;8.10;99.90;;;;;;4991335;28;20752;-73
2022/03/16 08:31:34;;;;;;;0.50;0.50;;;8.10;99.90;;;;;;4990844;28;20394;-74
2022/03/16 08:34:02;;;;;;;0.40;0.30;;;8.10;99.90;;;;;;4989970;28;20440;-74
2022/03/16 08:36:28;;;;;;;0.98;0.88;;;8.30;99.90;;;;;;4991845;28;20574;-74
2022/03/16 08:38:54;;;;;;;0.40;0.40;;;8.20;99.90;;;;;;4990685;28;20406;-74
2022/03/16 08:41:20;;;;;;;0.60;0.60;;;8.20;99.90;;;;;;4991806;28;20398;-74
2022/03/16 08:43:47;;;;;;;0.70;0.60;;;8.10;99.90;;;;;;4990622;28;20391;-74
2022/03/16 08:46:13;;;;;;;0.68;0.65;;;8.20;99.90;;;;;;4990851;28;20617;-74
2022/03/16 08:48:39;;;;;;;0.40;0.40;;;8.10;99.90;;;;;;4991294;28;20854;-73
2022/03/16 08:51:08;;;;;;;0.40;0.20;;;8.30;99.90;;;;;;4990830;28;20390;-74
2022/03/16 08:53:37;;;;;;;0.50;0.50;;;8.40;99.90;;;;;;4991825;28;20391;-74
2022/03/16 08:56:04;;;;;;;0.70;0.60;;;8.20;99.90;;;;;;4990672;28;20946;-74
2022/03/16 08:58:30;;;;;;;0.70;0.70;;;8.30;99.90;;;;;;4991674;28;20438;-73
2022/03/16 09:00:56;;;;;;;1.00;1.00;;;8.40;99.90;;;;;;4991342;28;20390;-73
2022/03/16 09:03:21;;;;;;;0.90;0.90;;;8.30;99.90;;;;;;4990756;28;20865;-74
2022/03/16 09:05:47;;;;;;;1.10;1.10;;;8.50;99.90;;;;;;4990364;28;20425;-74
2022/03/16 09:08:13;;;;;;;0.70;0.35;;;8.60;99.90;;;;;;4990625;28;20426;-73
2022/03/16 09:10:39;;;;;;;1.42;1.33;;;8.40;99.90;;;;;;5007230;28;20794;-73
2022/03/16 09:13:06;;;;;;;0.40;0.20;;;8.50;99.90;;;;;;5009879;28;20393;-73
2022/03/16 09:15:32;;;;;;;0.40;0.30;;;8.70;99.90;;;;;;5010309;28;20424;-73
2022/03/16 09:17:59;;;;;;;0.40;0.40;;;8.70;99.90;;;;;;5010988;28;20381;-73
2022/03/16 09:20:25;;;;;;;0.70;0.70;;;8.60;99.90;;;;;;5010619;28;20392;-73
2022/03/16 09:22:51;;;;;;;1.30;0.90;;;8.60;99.90;;;;;;5010997;28;20369;-73
2022/03/16 09:25:16;;;;;;;0.50;0.40;;;8.40;99.90;;;;;;5010579;28;20769;-73
2022/03/16 09:27:42;;;;;;;0.80;0.80;;;8.30;99.90;;;;;;5011021;28;20385;-73
2022/03/16 09:30:08;;;;;;;0.60;0.60;;;8.40;99.90;;;;;;5011048;28;20778;-73
2022/03/16 09:32:34;;;;;;;1.90;0.70;;;8.40;99.90;;;;;;5010357;28;20746;-74
2022/03/16 09:35:01;;;;;;;1.50;1.40;;;8.50;99.90;;;;;;5010949;28;20381;-73
2022/03/16 09:37:27;;;;;;;0.40;0.20;;;8.50;99.90;;;;;;5010168;28;20393;-73
2022/03/16 09:39:53;;;;;;;0.40;0.20;;;8.40;99.90;;;;;;5011203;28;20392;-74
2022/03/16 09:42:22;;;;;;;0.90;0.90;;;8.40;99.90;;;;;;5010819;28;20381;-74
2022/03/16 09:44:51;;;;;;;0.40;0.40;;;8.50;99.90;;;;;;5009970;28;20420;-73
2022/03/16 09:47:18;;;;;;;0.40;0.30;;;8.20;99.90;;;;;;5010494;28;20388;-74
2022/03/16 09:49:45;;;;;;;3.10;1.10;;;8.30;99.90;;;;;;5010019;28;20385;-74
2022/03/16 09:52:11;;;;;;;0.80;0.80;;;8.20;99.90;;;;;;5010704;28;20393;-75
2022/03/16 09:54:37;;;;;;;3.40;1.40;;;8.40;99.90;;;;;;5009965;28;20397;-74
2022/03/16 09:57:04;;;;;;;0.50;0.50;;;8.30;99.90;;;;;;5010845;28;20381;-74
2022/03/16 09:59:30;;;;;;;0.50;0.50;;;8.20;99.90;;;;;;5011012;28;20393;-74
2022/03/16 10:02:09;;;;;;;0.90;0.90;;;8.30;99.90;;;;;;5012744;28;20395;-74
2022/03/16 10:04:36;;;;;;;1.40;1.40;;;8.50;99.90;;;;;;5013947;28;20409;-74
2022/03/16 10:07:04;;;;;;;1.67;1.58;;;8.40;99.90;;;;;;5013902;28;20464;-74
2022/03/16 10:15:12;;;;;;;0.90;0.90;;;8.30;99.90;;;;;;4993382;28;20437;-74
2022/03/16 10:17:45;;;;;;;0.80;0.80;;;8.50;99.90;;;;;;4994433;28;20487;-74
2022/03/16 10:20:28;;;;;;;0.40;0.40;;;8.40;99.90;;;;;;4994679;28;20827;-74
2022/03/16 10:23:01;;;;;;;1.00;1.00;;;8.50;99.90;;;;;;4992296;28;20914;-73
2022/03/16 10:25:39;;;;;;;1.35;1.25;;;8.60;99.90;;;;;;4994167;28;20433;-74
2022/03/16 10:28:30;;;;;;;1.70;1.60;;;8.30;99.90;;;;;;4992336;28;20394;-74
2022/03/16 10:31:07;;;;;;;1.10;1.10;;;8.60;99.90;;;;;;4992289;28;20395;-74
2022/03/16 10:33:56;;;;;;;0.60;0.60;;;8.80;99.90;;;;;;4994218;28;20417;-74
2022/03/16 10:36:22;;;;;;;0.40;0.30;;;8.60;99.90;;;;;;4994326;28;20947;-74
2022/03/16 10:39:00;;;;;;;0.40;0.40;;;8.70;99.90;;;;;;4994191;28;20510;-74
2022/03/16 10:47:18;;;;;;;1.30;1.20;;;8.90;99.90;;;;;;4993088;28;20783;-73
2022/03/16 10:49:46;;;;;;;0.70;0.70;;;8.80;99.90;;;;;;4993481;28;20917;-74
2022/03/16 10:52:19;;;;;;;0.60;0.50;;;9.00;99.90;;;;;;4991701;28;20474;-74
2022/03/16 10:54:48;;;;;;;1.30;1.20;;;8.90;99.90;;;;;;4992665;28;20740;-74
2022/03/16 10:57:15;;;;;;;0.40;0.40;;;9.10;99.90;;;;;;4992752;28;20385;-74
2022/03/16 10:59:42;;;;;;;0.70;0.70;;;8.80;99.90;;;;;;4993701;28;20433;-74
2022/03/16 11:02:14;;;;;;;0.68;0.68;;;9.10;99.90;;;;;;4992676;28;20860;-74
2022/03/16 11:04:41;;;;;;;0.70;0.70;;;9.50;99.90;;;;;;4992004;28;20419;-74
2022/03/16 11:07:08;;;;;;;0.40;0.20;;;9.40;99.90;;;;;;4992070;28;20804;-74
2022/03/16 11:09:35;;;;;;;0.40;0.30;;;9.20;99.90;;;;;;4992569;28;20902;-74
2022/03/16 11:14:50;;;;;;;1.40;1.30;;;9.90;99.90;;;;;;4993150;28;20740;-74
2022/03/16 11:17:17;;;;;;;0.40;0.30;;;10.00;99.90;;;;;;4992695;28;20937;-74
2022/03/16 11:19:51;;;;;;;1.00;0.90;;;10.00;99.90;;;;;;4993570;28;20383;-74
2022/03/16 11:22:32;;;;;;;0.70;0.70;;;9.70;99.90;;;;;;4992697;28;20393;-73
2022/03/16 11:25:07;;;;;;;0.52;0.52;;;9.80;99.90;;;;;;4993042;28;20418;-74
2022/03/16 11:27:49;;;;;;;0.40;0.20;;;9.90;99.90;;;;;;4992116;28;20379;-74
2022/03/16 11:30:36;;;;;;;0.40;0.20;;;9.70;99.90;;;;;;4993095;28;20387;-74
2022/03/16 11:33:12;;;;;;;0.80;0.80;;;9.70;99.90;;;;;;4992709;28;20859;-75
2022/03/16 11:35:44;;;;;;;0.40;0.30;;;10.10;99.90;;;;;;4992203;28;20802;-73
2022/03/16 11:38:15;;;;;;;0.90;0.90;;;9.70;99.90;;;;;;4992980;28;20406;-73
2022/03/16 11:40:49;;;;;;;1.00;1.00;;;10.00;99.90;;;;;;4992100;28;20422;-74
2022/03/16 11:43:25;;;;;;;0.40;0.20;;;9.80;99.90;;;;;;4992662;28;20393;-73
2022/03/16 11:45:54;;;;;;;1.00;1.00;;;10.20;99.90;;;;;;4991455;28;20461;-74
2022/03/16 11:48:33;;;;;;;1.10;1.10;;;10.20;99.90;;;;;;4991195;28;20486;-74
2022/03/16 11:51:17;;;;;;;1.00;1.00;;;10.30;99.90;;;;;;4992562;28;20758;-73
2022/03/16 11:53:54;;;;;;;1.13;1.05;;;10.10;99.90;;;;;;4991840;28;20445;-73
2022/03/16 11:56:23;;;;;;;0.90;0.90;;;10.30;99.90;;;;;;4992235;28;20405;-72
2022/03/16 11:59:02;;;;;;;1.20;1.10;;;10.40;99.90;;;;;;4991551;28;20883;-74
2022/03/16 12:01:30;;;;;;;0.80;0.80;;;10.40;99.90;;;;;;4992427;28;20898;-73
2022/03/16 12:04:08;;;;;;;0.60;0.50;;;10.50;99.90;;;;;;4991529;28;20382;-73
2022/03/16 12:06:53;;;;;;;0.40;0.37;;;10.70;99.90;;;;;;4992354;28;20405;-73
2022/03/16 12:09:32;;;;;;;0.40;0.20;;;10.70;99.90;;;;;;4992001;28;20421;-73
2022/03/16 12:15:03;;;;;;;0.40;0.20;;;10.50;99.90;;;;;;4991487;28;20390;-74
2022/03/16 12:17:29;;;;;;;0.40;0.20;;;10.50;99.90;;;;;;4992207;28;20391;-74
2022/03/16 12:20:12;;;;;;;0.40;0.25;;;10.60;99.90;;;;;;4991358;28;20391;-74
2022/03/16 12:23:07;;;;;;;0.63;0.63;;;10.80;99.90;;;;;;4991815;28;20398;-75
2022/03/16 12:25:46;;;;;;;0.60;0.60;;;10.90;99.90;;;;;;4990098;28;20426;-74
2022/03/16 12:30:59;;;;;;;0.40;0.30;;;10.90;99.90;;;;;;4991271;28;20385;-75
2022/03/16 12:33:40;;;;;;;0.40;0.20;;;11.50;99.90;;;;;;4991606;28;20476;-74
2022/03/16 12:36:11;;;;;;;0.52;0.52;;;11.60;99.90;;;;;;4991134;28;20398;-75
2022/03/16 12:38:40;;;;;;;0.60;0.60;;;11.80;99.90;;;;;;4991825;28;20410;-74
2022/03/16 12:43:56;;;;;;;0.40;0.20;;;11.00;99.90;;;;;;4991117;28;20486;-74
2022/03/16 12:46:41;;;;;;;1.30;1.30;;;11.60;99.90;;;;;;4990507;28;20456;-75
2022/03/16 12:49:13;;;;;;;1.00;1.00;;;11.40;99.90;;;;;;4989629;28;20808;-75
2022/03/16 12:51:40;;;;;;;0.40;0.40;;;11.20;99.90;;;;;;4991783;28;20401;-75
2022/03/16 12:54:07;;;;;;;1.60;1.50;;;11.50;99.90;;;;;;4990842;28;20467;-75
2022/03/16 12:56:50;;;;;;;0.40;0.40;;;11.40;99.90;;;;;;4991286;28;20866;-75
2022/03/16 12:59:21;;;;;;;1.20;0.60;;;11.70;99.90;;;;;;4990596;28;20863;-75
2022/03/16 13:01:47;;;;;;;1.90;1.80;;;11.90;99.90;;;;;;4991718;28;20387;-74
2022/03/16 13:04:16;;;;;;;0.40;0.30;;;11.80;99.90;;;;;;4990538;28;20414;-75
2022/03/16 13:06:43;;;;;;;1.83;1.67;;;11.70;99.90;;;;;;4991359;28;20402;-74
2022/03/16 13:09:12;;;;;;;1.00;1.00;;;12.40;99.90;;;;;;4993674;28;20416;-74
2022/03/16 13:11:40;;;;;;;0.40;0.20;;;11.80;99.90;;;;;;5011069;28;20396;-75
2022/03/16 13:14:07;;;;;;;0.40;0.30;;;12.30;99.90;;;;;;5010287;28;20594;-74
2022/03/16 13:16:47;;;;;;;0.40;0.30;;;12.30;99.90;;;;;;5011033;28;20702;-74
2022/03/16 13:19:25;;;;;;;0.50;0.50;;;12.40;99.90;;;;;;5010191;28;20746;-74
2022/03/16 13:22:05;;;;;;;0.40;0.30;;;11.90;99.90;;;;;;5010945;28;20385;-74